Time;durP1;ratioP1;P1;durP2;ratioP2;P2;SDS_P1;SDS_P2;PMS_P1;PMS_P2;Temp;Humidity;BMP_temperature;BMP_pressure;BME280_temperature;BME280_humidity;BME280_pressure;Samples;Min_cycle;Max_cycle;Signal;HPM_P1;HPM_P2
2021/06/19 00:00:39;;;;;;;7.70;2.95;;;25.50;99.90;;;;;;5045912;28;21051;-50
2021/06/19 00:03:05;;;;;;;9.65;3.65;;;25.50;99.90;;;;;;5051710;28;20413;-49
2021/06/19 00:05:31;;;;;;;10.60;2.78;;;25.60;99.90;;;;;;5049635;28;20420;-50
2021/06/19 00:07:59;;;;;;;8.95;2.40;;;25.60;99.40;;;;;;5053817;28;20408;-51
2021/06/19 00:10:26;;;;;;;7.22;2.70;;;26.90;99.90;;;;;;5051199;28;20871;-50
2021/06/19 00:12:54;;;;;;;8.85;2.70;;;25.20;99.90;;;;;;5052690;28;20496;-50
2021/06/19 00:15:22;;;;;;;10.18;3.95;;;25.00;99.90;;;;;;5050954;28;20418;-53
2021/06/19 00:17:48;;;;;;;10.18;3.28;;;24.80;99.90;;;;;;5055590;28;20395;-50
2021/06/19 00:20:23;;;;;;;11.50;3.55;;;24.70;99.90;;;;;;5053888;28;20468;-49
2021/06/19 00:22:49;;;;;;;9.10;3.28;;;24.50;99.90;;;;;;5055898;28;20400;-50
2021/06/19 00:25:17;;;;;;;12.20;3.77;;;24.60;99.90;;;;;;5049209;28;20428;-49
2021/06/19 00:27:44;;;;;;;9.70;3.60;;;24.60;99.90;;;;;;5051326;28;20412;-49
2021/06/19 00:30:12;;;;;;;11.87;5.00;;;24.50;99.90;;;;;;5057390;28;20386;-50
2021/06/19 00:32:38;;;;;;;13.18;4.30;;;24.50;99.90;;;;;;5068408;28;20441;-49
2021/06/19 00:35:05;;;;;;;14.27;5.18;;;24.10;99.90;;;;;;5066109;28;20441;-50
2021/06/19 00:37:33;;;;;;;15.70;5.28;;;24.00;99.90;;;;;;5057785;28;20456;-49
2021/06/19 00:39:59;;;;;;;15.68;6.18;;;23.60;99.90;;;;;;5057390;28;20867;-51
2021/06/19 00:42:25;;;;;;;16.47;5.77;;;23.50;99.90;;;;;;5061344;28;20370;-49
2021/06/19 00:44:51;;;;;;;13.90;5.38;;;23.40;99.90;;;;;;5051798;28;20393;-49
2021/06/19 00:47:16;;;;;;;17.33;6.18;;;23.20;99.90;;;;;;5059544;28;20872;-49
2021/06/19 00:49:42;;;;;;;19.13;5.80;;;23.20;99.90;;;;;;5061202;28;20384;-47
2021/06/19 00:52:08;;;;;;;16.10;5.77;;;23.40;99.90;;;;;;5051762;28;20382;-48
2021/06/19 00:54:34;;;;;;;18.77;6.03;;;23.50;99.90;;;;;;5050899;28;20409;-47
2021/06/19 00:57:01;;;;;;;19.15;6.10;;;23.60;99.90;;;;;;5060778;28;20388;-48
2021/06/19 00:59:27;;;;;;;14.68;5.80;;;23.60;99.90;;;;;;5052481;28;20389;-49
2021/06/19 01:01:54;;;;;;;13.23;5.75;;;23.70;99.90;;;;;;5051642;28;20381;-50
2021/06/19 01:04:20;;;;;;;15.98;6.00;;;23.90;99.90;;;;;;5060356;28;20419;-51
2021/06/19 01:06:46;;;;;;;15.57;5.20;;;24.20;99.90;;;;;;5054441;28;20393;-49
2021/06/19 01:09:11;;;;;;;18.10;5.70;;;24.20;99.90;;;;;;5056953;28;20402;-49
2021/06/19 01:11:38;;;;;;;14.00;5.27;;;24.20;99.90;;;;;;5057475;28;20393;-48
2021/06/19 01:14:05;;;;;;;15.98;5.90;;;24.10;99.90;;;;;;5050397;28;20413;-48
2021/06/19 01:16:32;;;;;;;16.25;5.90;;;24.10;99.90;;;;;;5050636;28;20434;-48
2021/06/19 01:18:58;;;;;;;16.03;5.90;;;24.10;99.90;;;;;;5063308;28;20376;-49
2021/06/19 01:21:26;;;;;;;15.15;5.28;;;24.20;99.90;;;;;;5070135;28;20380;-49
2021/06/19 01:23:53;;;;;;;12.70;5.45;;;24.20;99.90;;;;;;5071085;28;20394;-49
2021/06/19 01:26:30;;;;;;;15.20;4.82;;;24.10;99.90;;;;;;5070361;28;20461;-52
2021/06/19 01:28:58;;;;;;;17.20;5.50;;;24.00;99.90;;;;;;5070382;28;20383;-49
2021/06/19 01:31:24;;;;;;;20.00;6.27;;;24.10;99.90;;;;;;5061387;28;20484;-49
2021/06/19 01:33:51;;;;;;;15.68;6.70;;;24.00;99.90;;;;;;5057848;28;20420;-49
2021/06/19 01:36:18;;;;;;;14.82;5.95;;;24.00;99.90;;;;;;5070908;28;20859;-49
2021/06/19 01:38:47;;;;;;;17.10;5.88;;;23.80;99.90;;;;;;5061073;28;20393;-48
2021/06/19 01:41:17;;;;;;;14.98;5.53;;;23.60;99.90;;;;;;5050770;28;20378;-49
2021/06/19 01:43:45;;;;;;;18.70;6.10;;;23.70;99.90;;;;;;5050125;28;20715;-49
2021/06/19 01:46:12;;;;;;;14.55;5.65;;;23.80;99.90;;;;;;5050686;28;20882;-49
2021/06/19 01:48:38;;;;;;;24.60;6.90;;;23.80;99.90;;;;;;5049894;28;20740;-49
2021/06/19 01:51:08;;;;;;;19.10;6.90;;;23.70;99.90;;;;;;5050821;28;20472;-49
2021/06/19 01:53:34;;;;;;;15.98;5.90;;;23.50;99.90;;;;;;5049718;28;20513;-49
2021/06/19 01:55:59;;;;;;;17.15;7.10;;;23.40;99.90;;;;;;5050394;28;20476;-49
2021/06/19 01:58:25;;;;;;;18.03;6.40;;;23.30;99.90;;;;;;5059304;28;20391;-49
2021/06/19 02:00:50;;;;;;;15.17;6.13;;;23.20;99.90;;;;;;5052920;28;20390;-49
2021/06/19 02:03:16;;;;;;;17.73;6.80;;;23.10;99.90;;;;;;5050510;28;20384;-49
2021/06/19 02:05:42;;;;;;;18.52;6.40;;;23.20;99.90;;;;;;5051159;28;20504;-49
2021/06/19 02:08:10;;;;;;;20.00;6.50;;;23.20;99.90;;;;;;5059321;28;20385;-49
2021/06/19 02:10:39;;;;;;;19.27;7.07;;;23.40;99.90;;;;;;5055639;28;20381;-49
2021/06/19 02:13:07;;;;;;;22.83;7.00;;;23.40;99.90;;;;;;5050413;28;20388;-49
2021/06/19 02:15:34;;;;;;;13.95;6.25;;;23.40;99.90;;;;;;5049376;28;20410;-49
2021/06/19 02:18:00;;;;;;;13.35;6.43;;;23.50;99.90;;;;;;5050158;28;20412;-50
2021/06/19 02:20:27;;;;;;;22.20;6.40;;;23.50;99.90;;;;;;5049797;28;20384;-49
2021/06/19 02:22:54;;;;;;;18.15;6.53;;;23.50;99.90;;;;;;5050210;28;20388;-49
2021/06/19 02:25:23;;;;;;;18.38;6.72;;;23.50;99.90;;;;;;5049496;28;20483;-52
2021/06/19 02:27:57;;;;;;;15.10;5.70;;;22.80;99.90;;;;;;5050284;28;20568;-49
2021/06/19 02:30:28;;;;;;;15.00;5.60;;;23.40;99.90;;;;;;5049434;28;20879;-52
2021/06/19 02:32:55;;;;;;;16.88;6.47;;;23.60;99.90;;;;;;5049746;28;20882;-49
2021/06/19 02:35:22;;;;;;;16.73;6.93;;;23.50;99.90;;;;;;5049772;28;20428;-52
2021/06/19 02:37:48;;;;;;;15.60;6.72;;;23.40;99.90;;;;;;5050040;28;20408;-49
2021/06/19 02:40:14;;;;;;;14.30;5.97;;;23.40;99.90;;;;;;5049882;28;20739;-49
2021/06/19 02:42:41;;;;;;;16.33;7.10;;;23.20;99.90;;;;;;5049093;28;20401;-49
2021/06/19 02:45:12;;;;;;;15.10;6.20;;;23.00;99.90;;;;;;5049656;28;20459;-49
2021/06/19 02:47:42;;;;;;;19.58;6.85;;;22.90;99.90;;;;;;5049086;28;20875;-50
2021/06/19 02:50:09;;;;;;;14.50;6.30;;;22.90;99.90;;;;;;5049691;28;20374;-49
2021/06/19 02:52:40;;;;;;;19.92;7.20;;;22.90;99.90;;;;;;5047899;28;20385;-49
2021/06/19 02:55:08;;;;;;;17.20;7.55;;;22.80;99.90;;;;;;5049376;28;20830;-49
2021/06/19 02:57:34;;;;;;;14.25;7.40;;;22.70;99.90;;;;;;5047844;28;20381;-51
2021/06/19 02:59:59;;;;;;;17.00;6.60;;;22.70;99.90;;;;;;5049543;28;20471;-49
2021/06/19 03:02:25;;;;;;;13.70;6.70;;;22.50;99.90;;;;;;5048987;28;20735;-49
2021/06/19 03:04:51;;;;;;;18.90;6.77;;;22.50;99.90;;;;;;5049211;28;20960;-49
2021/06/19 03:07:16;;;;;;;17.88;6.70;;;22.60;99.90;;;;;;5050256;28;20390;-50
2021/06/19 03:09:42;;;;;;;17.88;7.50;;;22.60;99.90;;;;;;5049271;28;20378;-50
2021/06/19 03:12:08;;;;;;;12.25;7.07;;;22.40;99.90;;;;;;5049189;28;20387;-49
2021/06/19 03:14:34;;;;;;;17.33;8.30;;;22.40;99.90;;;;;;5048271;28;20406;-47
2021/06/19 03:16:59;;;;;;;17.23;8.30;;;22.20;99.90;;;;;;5049284;28;20893;-50
2021/06/19 03:19:25;;;;;;;13.30;6.90;;;22.10;99.90;;;;;;5048398;28;20380;-52
2021/06/19 03:21:51;;;;;;;14.90;6.97;;;22.10;99.90;;;;;;5049303;28;20377;-51
2021/06/19 03:24:16;;;;;;;15.37;7.30;;;22.10;99.90;;;;;;5049173;28;20794;-49
2021/06/19 03:26:42;;;;;;;19.30;8.00;;;22.00;99.90;;;;;;5048617;28;20472;-47
2021/06/19 03:29:07;;;;;;;16.67;7.50;;;21.90;99.90;;;;;;5049463;28;20431;-48
2021/06/19 03:31:34;;;;;;;16.77;8.57;;;21.80;99.90;;;;;;5048460;28;20388;-48
2021/06/19 03:34:02;;;;;;;27.02;8.35;;;21.80;99.90;;;;;;5049008;28;20927;-48
2021/06/19 03:36:28;;;;;;;16.23;7.95;;;21.70;99.90;;;;;;5048882;28;20917;-48
2021/06/19 03:38:54;;;;;;;17.05;8.07;;;21.70;99.90;;;;;;5053090;28;20374;-48
2021/06/19 03:41:20;;;;;;;13.85;8.00;;;21.60;99.90;;;;;;5052804;28;20863;-51
2021/06/19 03:43:46;;;;;;;17.70;8.40;;;21.60;99.90;;;;;;5052704;28;20384;-48
2021/06/19 03:46:11;;;;;;;17.13;8.10;;;21.60;99.90;;;;;;5052991;28;20385;-49
2021/06/19 03:48:37;;;;;;;18.85;9.23;;;21.60;99.90;;;;;;5052233;28;20381;-48
2021/06/19 03:51:03;;;;;;;17.75;8.55;;;21.50;99.90;;;;;;5052869;28;20408;-49
2021/06/19 03:53:29;;;;;;;15.43;8.10;;;21.60;99.90;;;;;;5058504;28;20904;-49
2021/06/19 03:55:54;;;;;;;14.93;7.50;;;21.60;99.90;;;;;;5060316;28;20380;-48
2021/06/19 03:58:20;;;;;;;20.05;9.10;;;21.60;99.90;;;;;;5053185;28;20381;-50
2021/06/19 04:00:45;;;;;;;19.10;8.07;;;21.80;99.90;;;;;;5052355;28;20924;-48
2021/06/19 04:03:11;;;;;;;16.73;8.23;;;21.80;99.90;;;;;;5052430;28;20921;-49
2021/06/19 04:05:37;;;;;;;16.83;8.90;;;21.80;99.90;;;;;;5051929;28;20507;-48
2021/06/19 04:08:02;;;;;;;15.90;8.53;;;21.70;99.90;;;;;;5052316;28;20385;-48
2021/06/19 04:10:28;;;;;;;15.05;8.80;;;21.60;99.90;;;;;;5051800;28;20380;-49
2021/06/19 04:12:54;;;;;;;19.92;8.90;;;21.80;99.90;;;;;;5052549;28;20859;-48
2021/06/19 04:15:20;;;;;;;17.07;9.03;;;21.90;99.90;;;;;;5052338;28;20413;-49
2021/06/19 04:17:47;;;;;;;18.52;8.18;;;22.00;99.90;;;;;;5051383;28;20374;-49
2021/06/19 04:20:14;;;;;;;21.35;8.45;;;22.10;99.90;;;;;;5052536;28;20376;-50
2021/06/19 04:22:40;;;;;;;20.20;8.63;;;22.20;99.90;;;;;;5051430;28;20490;-48
2021/06/19 04:25:09;;;;;;;18.10;9.67;;;22.10;99.90;;;;;;5051442;28;20381;-49
2021/06/19 04:27:44;;;;;;;16.03;8.60;;;22.20;99.90;;;;;;5050634;28;20447;-49
2021/06/19 04:30:12;;;;;;;16.70;8.98;;;22.20;99.90;;;;;;5049679;28;20461;-49
2021/06/19 04:32:39;;;;;;;16.02;8.93;;;22.10;99.90;;;;;;5050853;28;20386;-49
2021/06/19 04:35:06;;;;;;;19.23;9.30;;;22.10;99.90;;;;;;5051842;28;20412;-49
2021/06/19 04:37:32;;;;;;;16.30;9.48;;;22.10;99.90;;;;;;5049765;28;20824;-49
2021/06/19 04:40:15;;;;;;;18.02;9.38;;;22.10;99.90;;;;;;5051941;28;20390;-49
2021/06/19 04:42:44;;;;;;;18.40;8.60;;;22.20;99.90;;;;;;5051106;28;20583;-49
2021/06/19 04:45:13;;;;;;;17.87;9.30;;;22.20;99.90;;;;;;5051881;28;20392;-49
2021/06/19 04:47:39;;;;;;;17.20;9.20;;;22.20;99.90;;;;;;5051278;28;20468;-49
2021/06/19 04:50:08;;;;;;;15.88;8.82;;;22.20;99.90;;;;;;5051687;28;20405;-49
2021/06/19 04:52:35;;;;;;;18.60;9.50;;;22.30;99.90;;;;;;5050931;28;20377;-49
2021/06/19 04:55:03;;;;;;;20.00;8.90;;;22.40;99.90;;;;;;5050777;28;20521;-50
2021/06/19 04:57:29;;;;;;;17.40;9.77;;;22.40;99.90;;;;;;5050228;28;20381;-50
2021/06/19 04:59:57;;;;;;;18.48;9.00;;;22.60;99.90;;;;;;5050990;28;20382;-50
2021/06/19 05:02:22;;;;;;;21.77;9.20;;;23.10;99.90;;;;;;5050785;28;20374;-54
2021/06/19 05:04:48;;;;;;;16.20;8.50;;;24.00;99.90;;;;;;5049942;28;20479;-51
2021/06/19 05:07:14;;;;;;;14.50;7.97;;;24.80;99.90;;;;;;5050993;28;20835;-51
2021/06/19 05:09:40;;;;;;;17.13;8.50;;;25.60;99.90;;;;;;5049188;28;20882;-49
2021/06/19 05:12:08;;;;;;;19.05;8.50;;;26.40;99.90;;;;;;5051595;28;20452;-50
2021/06/19 05:14:33;;;;;;;14.80;7.68;;;26.80;99.90;;;;;;5054301;28;20436;-49
2021/06/19 05:16:59;;;;;;;15.45;8.07;;;27.60;99.90;;;;;;5052169;28;20767;-49
2021/06/19 05:19:25;;;;;;;18.00;8.05;;;28.10;99.90;;;;;;5050454;28;20381;-53
2021/06/19 05:21:50;;;;;;;14.20;8.85;;;28.10;99.90;;;;;;5050738;28;20389;-48
2021/06/19 05:24:17;;;;;;;19.05;8.80;;;27.90;99.90;;;;;;5050898;28;20389;-48
2021/06/19 05:26:42;;;;;;;19.07;8.80;;;27.90;99.90;;;;;;5049906;28;20416;-49
2021/06/19 05:29:08;;;;;;;16.33;7.80;;;28.10;99.90;;;;;;5050184;28;20385;-49
2021/06/19 05:31:34;;;;;;;14.70;8.10;;;29.10;99.90;;;;;;5049880;28;20444;-49
2021/06/19 05:33:59;;;;;;;16.77;8.50;;;29.60;99.90;;;;;;5050177;28;20421;-49
2021/06/19 05:36:25;;;;;;;16.03;7.70;;;30.50;99.90;;;;;;5049938;28;20851;-53
2021/06/19 05:38:51;;;;;;;15.30;7.30;;;31.00;99.90;;;;;;5049384;28;20443;-49
2021/06/19 05:41:17;;;;;;;18.17;8.30;;;31.00;99.90;;;;;;5050991;28;20755;-49
2021/06/19 05:43:42;;;;;;;16.97;7.53;;;30.70;99.90;;;;;;5049272;28;20654;-49
2021/06/19 05:46:08;;;;;;;15.13;7.77;;;30.90;99.90;;;;;;5050416;28;20412;-50
2021/06/19 05:48:34;;;;;;;16.87;8.10;;;30.80;99.90;;;;;;5049649;28;20373;-49
2021/06/19 05:50:59;;;;;;;15.07;7.40;;;30.80;99.90;;;;;;5046109;28;20405;-51
2021/06/19 05:53:26;;;;;;;14.73;7.00;;;31.40;99.90;;;;;;5046248;28;20465;-53
2021/06/19 05:55:53;;;;;;;18.13;8.00;;;31.30;99.90;;;;;;5032393;28;20397;-50
2021/06/19 05:58:18;;;;;;;14.25;8.05;;;31.40;99.90;;;;;;5048950;28;20443;-47
2021/06/19 06:00:44;;;;;;;15.73;8.00;;;31.70;99.90;;;;;;5048573;28;20476;-49
2021/06/19 06:03:10;;;;;;;16.93;8.90;;;32.10;99.90;;;;;;5049498;28;20727;-49
2021/06/19 06:05:35;;;;;;;15.03;8.40;;;32.70;99.90;;;;;;5047180;28;20432;-49
2021/06/19 06:08:01;;;;;;;15.90;8.40;;;32.40;99.90;;;;;;5047723;28;20400;-49
2021/06/19 06:10:30;;;;;;;16.15;7.93;;;31.90;99.70;;;;;;5048159;28;20397;-49
2021/06/19 06:12:57;;;;;;;16.15;8.32;;;31.60;99.90;;;;;;5049565;28;20843;-49
2021/06/19 06:15:24;;;;;;;17.70;8.00;;;31.90;99.90;;;;;;5048948;28;20427;-53
2021/06/19 06:17:50;;;;;;;16.73;9.00;;;32.60;99.30;;;;;;5048765;28;20392;-49
2021/06/19 06:20:15;;;;;;;16.20;8.50;;;33.00;97.80;;;;;;5051345;28;20396;-49
2021/06/19 06:22:41;;;;;;;12.88;7.60;;;33.50;95.80;;;;;;5049402;28;20421;-49
2021/06/19 06:25:07;;;;;;;17.60;8.00;;;33.60;95.50;;;;;;5050014;28;20883;-50
2021/06/19 06:27:33;;;;;;;14.97;9.17;;;33.90;93.80;;;;;;5048066;28;20386;-50
2021/06/19 06:29:59;;;;;;;11.57;7.30;;;33.20;94.30;;;;;;5049880;28;20904;-50
2021/06/19 06:32:26;;;;;;;16.27;8.17;;;33.40;94.20;;;;;;5049089;28;20422;-54
2021/06/19 06:34:51;;;;;;;19.05;8.32;;;33.90;93.90;;;;;;5049146;28;20425;-51
2021/06/19 06:37:17;;;;;;;16.50;7.75;;;34.40;93.00;;;;;;5048660;28;20443;-51
2021/06/19 06:39:43;;;;;;;17.00;7.68;;;34.40;92.60;;;;;;5048126;28;21243;-50
2021/06/19 06:42:09;;;;;;;11.73;7.13;;;34.60;91.30;;;;;;5049317;28;20397;-48
2021/06/19 06:44:35;;;;;;;14.85;7.38;;;34.00;91.90;;;;;;5055267;28;20423;-48
2021/06/19 06:47:01;;;;;;;11.07;6.70;;;34.30;91.40;;;;;;5059675;28;20436;-50
2021/06/19 06:49:26;;;;;;;11.15;6.82;;;34.70;90.30;;;;;;5046345;28;20942;-53
2021/06/19 06:51:52;;;;;;;9.50;6.40;;;34.70;89.80;;;;;;5048292;28;20472;-50
2021/06/19 06:54:19;;;;;;;14.20;7.00;;;34.80;88.20;;;;;;5064155;28;20421;-50
2021/06/19 06:56:44;;;;;;;11.30;6.80;;;35.40;86.00;;;;;;5046500;28;21036;-50
2021/06/19 06:59:10;;;;;;;12.23;7.50;;;35.50;85.80;;;;;;5047172;28;20419;-50
2021/06/19 07:01:36;;;;;;;12.20;7.33;;;35.00;85.60;;;;;;5049476;28;20466;-50
2021/06/19 07:04:01;;;;;;;12.07;7.50;;;34.70;86.20;;;;;;5048717;28;20402;-50
2021/06/19 07:06:27;;;;;;;13.38;7.47;;;34.80;84.90;;;;;;5060029;28;20381;-50
2021/06/19 07:08:53;;;;;;;12.32;7.13;;;35.10;84.60;;;;;;5048918;28;20473;-50
2021/06/19 07:11:20;;;;;;;12.50;8.25;;;36.10;83.40;;;;;;5049461;28;20409;-50
2021/06/19 07:13:45;;;;;;;12.90;7.43;;;37.00;79.40;;;;;;5051122;28;20495;-50
2021/06/19 07:16:11;;;;;;;13.32;7.60;;;37.10;76.90;;;;;;5057047;28;20507;-50
2021/06/19 07:18:37;;;;;;;11.98;8.52;;;37.10;77.40;;;;;;5059389;28;20491;-50
2021/06/19 07:21:03;;;;;;;13.50;7.43;;;36.40;76.10;;;;;;5055289;28;20425;-50
2021/06/19 07:23:31;;;;;;;13.17;7.57;;;35.70;79.40;;;;;;5060928;28;20452;-53
2021/06/19 07:25:58;;;;;;;14.40;7.22;;;35.80;78.00;;;;;;5062289;28;20419;-51
2021/06/19 07:28:23;;;;;;;14.55;8.82;;;36.20;78.50;;;;;;5068212;28;20397;-50
2021/06/19 07:30:49;;;;;;;12.80;7.87;;;35.60;79.40;;;;;;5056615;28;20393;-50
2021/06/19 07:33:15;;;;;;;12.33;8.70;;;35.70;78.80;;;;;;5053918;28;20396;-50
2021/06/19 07:35:41;;;;;;;12.00;8.30;;;36.20;77.30;;;;;;5050459;28;20919;-50
2021/06/19 07:38:07;;;;;;;10.90;7.97;;;36.70;75.90;;;;;;5052624;28;20385;-50
2021/06/19 07:40:33;;;;;;;12.87;7.40;;;37.60;73.40;;;;;;5051118;28;20928;-50
2021/06/19 07:43:00;;;;;;;10.43;7.20;;;37.40;72.50;;;;;;5051970;28;20476;-50
2021/06/19 07:45:26;;;;;;;14.13;7.80;;;37.60;71.70;;;;;;5051575;28;20388;-53
2021/06/19 07:47:52;;;;;;;12.40;7.77;;;36.70;73.10;;;;;;5051876;28;20392;-50
2021/06/19 07:50:18;;;;;;;14.83;9.23;;;37.30;72.00;;;;;;5052633;28;20377;-50
2021/06/19 07:52:44;;;;;;;11.15;7.95;;;37.30;70.00;;;;;;5051576;28;20475;-50
2021/06/19 07:55:10;;;;;;;10.90;7.15;;;38.50;66.90;;;;;;5051500;28;20413;-50
2021/06/19 07:57:36;;;;;;;12.93;7.82;;;38.70;64.50;;;;;;5050312;28;20405;-50
2021/06/19 08:00:04;;;;;;;13.93;7.53;;;38.70;64.80;;;;;;5051878;28;20392;-50
2021/06/19 08:02:30;;;;;;;13.15;7.22;;;39.00;63.40;;;;;;5050992;28;20468;-58
2021/06/19 08:04:55;;;;;;;11.88;7.35;;;39.60;62.30;;;;;;5050334;28;20993;-51
2021/06/19 08:07:21;;;;;;;12.43;6.87;;;40.30;59.30;;;;;;5060764;28;20388;-50
2021/06/19 08:09:47;;;;;;;14.52;7.47;;;40.40;58.80;;;;;;5049670;28;21050;-51
2021/06/19 08:12:12;;;;;;;12.00;6.80;;;40.60;58.00;;;;;;5049940;28;20866;-50
2021/06/19 08:14:38;;;;;;;12.23;7.05;;;40.50;56.00;;;;;;5049340;28;20416;-50
2021/06/19 08:17:14;;;;;;;11.07;7.17;;;40.20;56.50;;;;;;5049731;28;20393;-50
2021/06/19 08:19:39;;;;;;;9.88;6.55;;;39.80;56.50;;;;;;5050028;28;20393;-50
2021/06/19 08:22:06;;;;;;;11.80;7.00;;;39.70;56.00;;;;;;5048551;28;20396;-50
2021/06/19 08:24:32;;;;;;;13.50;6.63;;;39.80;55.90;;;;;;5068356;28;20410;-51
2021/06/19 08:26:58;;;;;;;12.57;5.95;;;39.80;55.70;;;;;;5060280;28;20387;-50
2021/06/19 08:29:24;;;;;;;12.43;7.30;;;40.10;54.70;;;;;;5057611;28;20432;-50
2021/06/19 08:31:51;;;;;;;11.90;6.87;;;40.00;53.80;;;;;;5062874;28;20393;-52
2021/06/19 08:34:17;;;;;;;11.20;6.40;;;39.70;53.80;;;;;;5057441;28;20419;-50
2021/06/19 08:36:42;;;;;;;15.20;7.30;;;39.40;55.00;;;;;;5070249;28;20387;-50
2021/06/19 08:39:08;;;;;;;19.98;7.10;;;40.10;54.70;;;;;;5069935;28;20865;-51
2021/06/19 08:41:37;;;;;;;11.67;7.57;;;40.50;54.40;;;;;;5069631;28;20380;-51
2021/06/19 08:44:03;;;;;;;13.68;7.10;;;40.50;53.80;;;;;;5069636;28;20379;-50
2021/06/19 08:46:29;;;;;;;14.02;6.80;;;40.10;54.10;;;;;;5051098;28;20411;-54
2021/06/19 08:48:56;;;;;;;15.13;7.40;;;40.30;52.70;;;;;;5049809;28;20806;-49
2021/06/19 08:51:23;;;;;;;10.65;7.13;;;40.30;54.20;;;;;;5050393;28;20823;-49
2021/06/19 08:53:49;;;;;;;13.38;6.88;;;39.00;54.90;;;;;;5049020;28;20962;-50
2021/06/19 08:56:17;;;;;;;12.30;6.85;;;38.20;57.80;;;;;;5050174;28;20381;-50
2021/06/19 08:58:43;;;;;;;13.95;7.20;;;38.10;58.60;;;;;;5045744;28;20392;-50
2021/06/19 09:01:09;;;;;;;12.27;6.85;;;38.10;58.30;;;;;;5060107;28;20399;-49
2021/06/19 09:03:35;;;;;;;10.80;7.47;;;38.60;57.30;;;;;;5058497;28;20421;-50
2021/06/19 09:06:19;;;;;;;14.60;6.72;;;38.40;57.00;;;;;;5033001;28;809337;-50
2021/06/19 09:09:10;;;;;;;11.73;7.07;;;38.50;57.50;;;;;;5061018;28;20899;-50
2021/06/19 09:11:52;;;;;;;13.80;7.67;;;38.90;56.70;;;;;;5056322;28;20399;-50
2021/06/19 09:14:27;;;;;;;13.52;7.63;;;38.10;57.90;;;;;;5053213;28;20421;-50
2021/06/19 09:17:00;;;;;;;12.18;6.85;;;38.00;59.00;;;;;;5058006;28;20377;-50
2021/06/19 09:19:27;;;;;;;9.50;7.00;;;38.40;58.00;;;;;;5050235;28;20493;-48
2021/06/19 09:22:22;;;;;;;11.10;7.20;;;39.10;56.60;;;;;;5065635;28;20393;-50
2021/06/19 09:24:49;;;;;;;11.35;7.70;;;39.20;56.10;;;;;;5049395;28;20382;-50
2021/06/19 09:27:38;;;;;;;13.02;7.70;;;39.80;55.10;;;;;;5050326;28;20408;-49
2021/06/19 09:30:05;;;;;;;12.27;7.47;;;39.80;54.70;;;;;;5050073;28;20945;-50
2021/06/19 09:32:31;;;;;;;14.52;7.85;;;40.00;54.60;;;;;;5049391;28;20393;-51
2021/06/19 09:35:30;;;;;;;10.95;7.40;;;40.70;53.60;;;;;;5052036;28;20425;-53
2021/06/19 09:38:08;;;;;;;13.25;7.70;;;41.70;51.90;;;;;;5029580;28;20416;-49
2021/06/19 09:40:38;;;;;;;15.05;8.05;;;40.80;52.60;;;;;;5055477;28;20438;-49
2021/06/19 09:43:14;;;;;;;12.93;7.68;;;41.20;51.40;;;;;;5049765;28;20448;-49
2021/06/19 09:46:02;;;;;;;14.57;8.13;;;40.90;52.30;;;;;;5052221;28;20906;-49
2021/06/19 09:48:39;;;;;;;13.30;7.70;;;41.30;52.40;;;;;;5049075;28;20474;-53
2021/06/19 09:51:24;;;;;;;11.85;7.80;;;41.20;52.20;;;;;;5032180;28;20459;-49
2021/06/19 09:54:08;;;;;;;13.32;7.88;;;41.90;50.60;;;;;;5048768;28;20536;-50
2021/06/19 09:56:45;;;;;;;12.68;7.63;;;41.70;51.10;;;;;;5047557;28;20403;-51
2021/06/19 09:59:20;;;;;;;17.00;7.30;;;41.60;51.40;;;;;;5049044;28;20397;-49
2021/06/19 10:01:46;;;;;;;14.45;7.80;;;42.00;50.10;;;;;;5052901;28;20389;-50
2021/06/19 10:04:16;;;;;;;12.02;7.50;;;42.40;50.30;;;;;;5059235;28;20418;-51
2021/06/19 10:06:42;;;;;;;12.88;8.13;;;41.70;50.20;;;;;;5049859;28;20485;-50
2021/06/19 10:09:08;;;;;;;13.90;9.00;;;41.60;49.70;;;;;;5052215;28;20411;-50
2021/06/19 10:11:35;;;;;;;14.15;8.70;;;40.30;51.40;;;;;;5046849;28;20871;-50
2021/06/19 10:14:01;;;;;;;16.42;8.43;;;40.60;51.10;;;;;;5054793;28;20481;-50
2021/06/19 10:16:29;;;;;;;14.23;8.20;;;41.00;51.20;;;;;;5052181;28;20420;-53
2021/06/19 10:18:56;;;;;;;11.13;7.22;;;41.00;51.60;;;;;;5050182;28;20851;-50
2021/06/19 10:21:24;;;;;;;15.95;7.90;;;41.10;50.20;;;;;;5048568;28;20397;-50
2021/06/19 10:23:50;;;;;;;14.98;7.82;;;41.20;49.90;;;;;;5045751;28;20529;-50
2021/06/19 10:26:24;;;;;;;11.80;7.80;;;41.10;49.20;;;;;;5056093;28;20801;-50
2021/06/19 10:28:56;;;;;;;10.48;7.00;;;40.90;49.80;;;;;;5059702;28;20372;-49
2021/06/19 10:31:22;;;;;;;13.30;7.55;;;40.20;50.40;;;;;;5056084;28;20393;-50
2021/06/19 10:33:48;;;;;;;14.45;10.27;;;39.60;48.70;;;;;;5051614;28;20410;-50
2021/06/19 10:36:15;;;;;;;11.37;9.00;;;38.70;49.90;;;;;;5051742;28;20405;-50
2021/06/19 10:38:59;;;;;;;14.05;9.60;;;37.90;51.10;;;;;;5051181;28;20890;-50
2021/06/19 10:41:46;;;;;;;17.45;9.48;;;37.10;51.80;;;;;;5050592;28;20402;-51
2021/06/19 10:44:12;;;;;;;16.20;8.88;;;36.70;54.50;;;;;;5055227;28;20424;-50
2021/06/19 10:46:39;;;;;;;14.00;9.53;;;36.60;52.60;;;;;;5051498;28;20380;-51
2021/06/19 10:49:20;;;;;;;14.43;9.20;;;36.60;54.00;;;;;;5056558;28;20393;-51
2021/06/19 10:51:47;;;;;;;12.82;9.40;;;36.80;55.60;;;;;;5057177;28;20451;-49
2021/06/19 10:54:18;;;;;;;14.23;8.52;;;36.70;54.80;;;;;;5048811;28;20846;-52
2021/06/19 10:56:51;;;;;;;12.97;7.30;;;36.30;52.60;;;;;;5051549;28;20478;-51
2021/06/19 10:59:32;;;;;;;13.63;7.15;;;36.10;55.20;;;;;;5049611;28;20386;-50
2021/06/19 11:02:02;;;;;;;14.60;7.77;;;35.90;56.50;;;;;;5049562;28;20409;-50
2021/06/19 11:04:40;;;;;;;12.07;7.43;;;36.10;56.70;;;;;;5051273;28;20416;-53
2021/06/19 11:07:09;;;;;;;17.00;8.07;;;36.40;56.10;;;;;;5044560;28;20763;-50
2021/06/19 11:09:37;;;;;;;17.35;10.18;;;36.40;55.30;;;;;;5048958;28;20495;-50
2021/06/19 11:12:04;;;;;;;15.65;7.25;;;36.10;56.10;;;;;;5047521;28;20932;-51
2021/06/19 11:14:42;;;;;;;16.23;7.30;;;35.90;55.40;;;;;;5051256;28;20896;-53
2021/06/19 11:17:08;;;;;;;12.18;7.55;;;36.20;57.20;;;;;;5052997;28;20412;-50
2021/06/19 11:19:40;;;;;;;11.77;7.43;;;36.40;57.30;;;;;;5050209;28;20423;-50
2021/06/19 11:22:24;;;;;;;13.00;7.15;;;36.40;55.70;;;;;;5054966;28;20409;-50
2021/06/19 11:25:11;;;;;;;16.20;7.38;;;36.70;56.70;;;;;;5047172;28;20398;-50
2021/06/19 11:27:59;;;;;;;15.43;8.40;;;36.30;58.00;;;;;;5055980;28;20427;-50
2021/06/19 11:30:37;;;;;;;13.40;8.00;;;36.10;58.00;;;;;;5049657;28;20396;-49
2021/06/19 11:33:21;;;;;;;14.70;7.70;;;35.80;57.60;;;;;;5051809;28;20484;-50
2021/06/19 11:36:11;;;;;;;13.73;7.32;;;35.90;57.30;;;;;;5033277;28;20421;-50
2021/06/19 11:38:45;;;;;;;15.43;7.40;;;35.90;56.00;;;;;;5043435;28;20499;-50
2021/06/19 11:41:16;;;;;;;14.95;7.50;;;35.70;55.90;;;;;;5057582;28;20912;-49
2021/06/19 11:43:44;;;;;;;13.43;7.80;;;35.60;57.60;;;;;;5049691;28;20381;-51
2021/06/19 11:46:10;;;;;;;14.10;7.07;;;35.90;57.10;;;;;;5057349;28;20470;-50
2021/06/19 11:48:54;;;;;;;16.50;6.32;;;35.60;53.80;;;;;;5053345;28;20470;-50
2021/06/19 11:51:26;;;;;;;15.07;7.22;;;35.60;53.90;;;;;;5049458;28;20392;-50
2021/06/19 11:53:52;;;;;;;14.68;7.00;;;35.70;56.50;;;;;;5053750;28;20640;-50
2021/06/19 11:56:26;;;;;;;14.05;7.50;;;36.00;56.50;;;;;;5054792;28;20472;-49
2021/06/19 11:58:55;;;;;;;13.30;7.40;;;36.20;54.70;;;;;;5050162;28;20393;-50
2021/06/19 12:01:25;;;;;;;15.07;7.00;;;36.40;54.80;;;;;;5051912;28;20388;-51
2021/06/19 12:03:52;;;;;;;13.18;7.57;;;36.60;56.30;;;;;;5052841;28;20533;-50
2021/06/19 12:06:28;;;;;;;16.17;7.95;;;36.30;55.30;;;;;;5052944;28;20723;-51
2021/06/19 12:08:54;;;;;;;16.80;7.80;;;36.10;55.80;;;;;;5054317;28;21087;-50
2021/06/19 12:11:31;;;;;;;14.27;8.30;;;36.00;56.30;;;;;;5054437;28;20488;-50
2021/06/19 12:13:58;;;;;;;14.10;8.63;;;35.80;57.90;;;;;;5045206;28;20480;-50
2021/06/19 12:16:31;;;;;;;17.92;8.50;;;35.70;58.20;;;;;;5051741;28;21650;-50
2021/06/19 12:19:01;;;;;;;17.30;8.30;;;35.90;56.70;;;;;;5049723;28;20480;-50
2021/06/19 12:21:32;;;;;;;16.20;7.70;;;36.10;57.00;;;;;;5064662;28;20391;-50
2021/06/19 12:23:59;;;;;;;15.43;7.78;;;36.10;56.70;;;;;;5047016;28;20398;-52
2021/06/19 12:26:25;;;;;;;13.77;7.03;;;35.80;56.10;;;;;;5050485;28;20394;-49
2021/06/19 12:28:50;;;;;;;15.17;7.47;;;35.80;56.00;;;;;;5044625;28;20443;-50
2021/06/19 12:31:20;;;;;;;13.07;7.40;;;35.50;55.70;;;;;;5050165;28;20900;-51
2021/06/19 12:33:55;;;;;;;17.05;6.85;;;35.10;56.50;;;;;;5050102;28;20424;-50
2021/06/19 12:36:23;;;;;;;14.18;7.25;;;35.30;56.70;;;;;;5052853;28;20859;-50
2021/06/19 12:38:50;;;;;;;13.80;7.37;;;35.50;56.00;;;;;;5050903;28;20475;-50
2021/06/19 12:41:16;;;;;;;15.77;6.80;;;35.30;56.60;;;;;;5052978;28;20386;-50
2021/06/19 12:43:50;;;;;;;14.00;6.97;;;35.50;55.00;;;;;;5051069;28;20401;-50